createdAt,value
2018-01-13T00:12:44.350Z,99179.49
2018-01-13T00:33:17.678Z,99179.11
2018-01-13T00:53:50.591Z,99172.47
2018-01-13T01:14:26.478Z,99169.86
2018-01-13T01:35:01.133Z,99173.81
2018-01-13T01:55:37.325Z,99184.79
2018-01-13T02:16:13.834Z,99173.14
2018-01-13T02:36:47.876Z,99161.25
2018-01-13T02:57:21.910Z,99140.48
2018-01-13T03:17:57.177Z,99128.84
2018-01-13T03:38:29.377Z,99124.72
2018-01-13T03:59:03.082Z,99127.55
2018-01-13T04:19:36.849Z,99121.58
2018-01-13T04:40:11.201Z,99125.37
2018-01-13T05:00:42.480Z,99124.84
2018-01-13T05:21:17.766Z,99130.49
2018-01-13T05:41:54.555Z,99123.34
2018-01-13T06:02:29.237Z,99115.98
2018-01-13T06:23:06.020Z,99103.91
2018-01-13T06:43:40.366Z,99103.02
2018-01-13T07:04:16.867Z,99099.91
2018-01-13T07:24:53.184Z,99102.31
2018-01-13T07:45:27.517Z,99118.75
2018-01-13T08:06:11.586Z,99113.45
2018-01-13T08:26:46.858Z,99106.08
2018-01-13T08:47:22.360Z,99104.11
2018-01-13T09:07:58.020Z,99111.42
2018-01-13T09:28:32.362Z,99116.15
2018-01-13T09:49:07.637Z,99135.01
2018-01-13T10:09:43.829Z,99126.34
2018-01-13T10:30:22.173Z,99112.36
2018-01-13T10:50:56.213Z,99099.44
2018-01-13T11:11:33.636Z,99064.39
2018-01-13T11:32:09.829Z,99034.28
2018-01-13T11:52:43.306Z,99002.80
2018-01-13T12:13:17.300Z,98977.83
2018-01-13T12:33:49.502Z,98957.60
2018-01-13T12:54:22.615Z,98934.59
2018-01-13T13:14:55.743Z,98929.16
2018-01-13T13:35:30.089Z,98906.09
2018-01-13T13:56:05.360Z,98888.37
2018-01-13T14:16:40.633Z,98860.03
2018-01-13T14:37:19.892Z,98849.91
2018-01-13T14:57:53.020Z,98845.20
2018-01-13T15:18:28.900Z,98819.71
2018-01-13T15:39:01.409Z,98814.77
2018-01-13T15:59:39.080Z,98811.98
2018-01-13T16:20:13.227Z,98812.27
2018-01-13T16:40:52.136Z,98816.06
2018-01-13T17:01:32.937Z,98809.38
2018-01-13T17:22:11.099Z,98807.23
2018-01-13T17:42:48.091Z,98793.61
2018-01-13T18:03:26.132Z,98804.53
2018-01-13T18:23:59.565Z,98803.02
2018-01-13T18:44:36.668Z,98791.33
2018-01-13T19:05:14.717Z,98787.02
2018-01-13T19:25:50.287Z,98763.77
2018-01-13T19:46:25.566Z,98757.31
2018-01-13T20:07:00.832Z,98753.89
2018-01-13T20:45:36.954Z,98740.31
2018-01-13T21:06:12.191Z,98727.20
2018-01-13T21:26:44.937Z,98733.75
2018-01-13T21:47:19.617Z,98730.21
2018-01-13T22:07:52.717Z,98732.50
2018-01-13T22:28:29.072Z,98731.14
2018-01-13T22:49:04.296Z,98715.18
2018-01-13T23:09:41.298Z,98713.75
2018-01-13T23:30:16.569Z,98700.17
2018-01-13T23:50:49.688Z,98698.83
